Time;durP1;ratioP1;P1;durP2;ratioP2;P2;SDS_P1;SDS_P2;PMS_P1;PMS_P2;Temp;Humidity;BMP_temperature;BMP_pressure;BME280_temperature;BME280_humidity;BME280_pressure;Samples;Min_cycle;Max_cycle;Signal;HPM_P1;HPM_P2
2022/03/09 00:01:58;;;;;;;13.07;7.38;;;;;;;3.64;50.11;102124.09;5032881;28;20079;-46
2022/03/09 00:04:25;;;;;;;21.65;7.82;;;;;;;3.72;49.56;102126.91;5032864;28;20025;-47
2022/03/09 00:06:50;;;;;;;16.75;7.82;;;;;;;3.64;49.91;102116.41;5033237;28;20433;-47
2022/03/09 00:09:16;;;;;;;13.13;7.32;;;;;;;3.63;49.67;102114.78;5032914;28;20029;-48
2022/03/09 00:11:42;;;;;;;12.23;7.93;;;;;;;3.61;50.18;102117.44;5031655;28;20029;-46
2022/03/09 00:14:08;;;;;;;16.00;8.07;;;;;;;3.66;49.87;102124.81;5032799;28;20023;-46
2022/03/09 00:16:33;;;;;;;14.65;8.02;;;;;;;3.66;49.82;102123.06;5013951;28;20025;-48
2022/03/09 00:18:59;;;;;;;17.88;8.30;;;;;;;3.53;50.73;102133.31;5031882;28;20203;-44
2022/03/09 00:21:24;;;;;;;16.58;8.38;;;;;;;3.67;50.08;102124.69;5030482;28;20033;-45
2022/03/09 00:23:52;;;;;;;13.20;7.50;;;;;;;3.65;49.82;102126.50;5031429;28;20036;-45
2022/03/09 00:26:18;;;;;;;13.93;8.07;;;;;;;3.64;49.61;102136.88;5033985;28;20037;-45
2022/03/09 00:28:43;;;;;;;15.38;8.00;;;;;;;3.72;49.21;102139.69;5035163;28;20560;-52
2022/03/09 00:31:08;;;;;;;18.70;7.25;;;;;;;3.65;50.01;102141.84;5035047;28;20090;-46
2022/03/09 00:33:34;;;;;;;14.73;8.05;;;;;;;3.63;49.67;102148.84;5035435;28;20055;-46
2022/03/09 00:36:00;;;;;;;14.63;7.47;;;;;;;3.58;49.65;102146.59;5036583;28;20360;-47
2022/03/09 00:38:26;;;;;;;13.70;7.55;;;;;;;3.58;50.17;102140.66;5036464;28;20021;-47
2022/03/09 00:40:51;;;;;;;14.45;7.28;;;;;;;3.29;50.78;102140.16;5036017;28;20079;-47
2022/03/09 00:43:17;;;;;;;24.35;8.00;;;;;;;3.39;50.19;102144.53;5035194;28;20025;-45
2022/03/09 00:45:43;;;;;;;16.95;8.60;;;;;;;3.43;50.13;102146.88;5036947;28;20033;-47
2022/03/09 00:48:08;;;;;;;12.60;7.78;;;;;;;3.47;50.06;102141.41;5035969;28;20035;-47
2022/03/09 00:50:34;;;;;;;16.33;8.20;;;;;;;3.52;49.92;102143.66;5035919;28;20028;-48
2022/03/09 00:52:59;;;;;;;13.75;7.80;;;;;;;3.47;50.27;102135.50;5035906;28;20068;-47
2022/03/09 00:55:24;;;;;;;14.10;8.27;;;;;;;3.25;51.19;102133.59;5035865;28;20034;-47
2022/03/09 00:57:50;;;;;;;14.70;8.15;;;;;;;3.22;50.70;102131.25;5035536;28;20058;-47
2022/03/09 01:00:16;;;;;;;14.38;7.68;;;;;;;3.25;50.91;102128.50;5034462;28;20079;-47
2022/03/09 01:02:43;;;;;;;16.75;7.88;;;;;;;3.22;51.34;102134.63;5035627;28;20028;-47
2022/03/09 01:05:09;;;;;;;15.00;7.68;;;;;;;3.34;50.77;102135.53;5035664;28;20104;-46
2022/03/09 01:07:35;;;;;;;13.73;8.02;;;;;;;3.23;51.85;102115.84;5035545;28;20025;-47
2022/03/09 01:10:00;;;;;;;17.13;8.38;;;;;;;3.19;53.37;102128.91;5034207;28;20033;-48
2022/03/09 01:12:26;;;;;;;15.35;8.35;;;;;;;3.17;53.14;102131.59;5035045;28;20463;-47
2022/03/09 01:14:51;;;;;;;14.57;7.57;;;;;;;3.23;53.50;102130.34;5035711;28;20021;-46
2022/03/09 01:17:17;;;;;;;12.52;7.53;;;;;;;3.32;52.01;102140.75;5035436;28;20041;-47
2022/03/09 01:19:42;;;;;;;13.32;7.25;;;;;;;3.32;52.92;102133.06;5034057;28;20029;-47
2022/03/09 01:22:07;;;;;;;11.30;7.25;;;;;;;3.20;52.90;102136.50;5035202;28;20079;-57
2022/03/09 01:24:33;;;;;;;16.10;8.05;;;;;;;3.20;54.56;102136.50;5035273;28;20392;-47
2022/03/09 01:26:58;;;;;;;12.68;7.68;;;;;;;3.03;53.35;102142.75;5035520;28;20035;-46
2022/03/09 01:29:23;;;;;;;12.95;7.43;;;;;;;2.87;55.03;102142.94;5035119;28;20431;-47
2022/03/09 01:31:48;;;;;;;20.52;7.85;;;;;;;2.75;54.64;102137.84;5033926;28;20041;-47
2022/03/09 01:34:14;;;;;;;16.00;8.02;;;;;;;2.61;55.09;102142.13;5035325;28;20021;-47
2022/03/09 01:36:39;;;;;;;17.35;8.38;;;;;;;2.49;55.49;102138.66;5034440;28;20441;-48
2022/03/09 01:39:05;;;;;;;16.73;8.60;;;;;;;2.53;56.14;102138.44;5035266;28;20029;-47
2022/03/09 01:41:30;;;;;;;14.48;7.88;;;;;;;2.45;56.59;102139.78;5035157;28;20030;-48
2022/03/09 01:44:13;;;;;;;15.90;8.65;;;;;;;2.35;57.93;102125.97;5035349;28;20033;-47
2022/03/09 01:46:39;;;;;;;16.00;7.95;;;;;;;2.22;58.61;102131.09;5034865;28;20037;-47
2022/03/09 01:49:06;;;;;;;17.00;8.57;;;;;;;2.15;58.66;102132.38;5034807;28;20110;-47
2022/03/09 01:51:34;;;;;;;16.08;8.35;;;;;;;2.06;58.81;102135.53;5034672;28;20053;-47
2022/03/09 01:54:00;;;;;;;16.95;8.40;;;;;;;2.07;58.74;102138.88;5034932;28;20468;-46
2022/03/09 01:56:26;;;;;;;16.80;8.35;;;;;;;2.03;58.70;102133.97;5034640;28;20060;-47
2022/03/09 01:58:51;;;;;;;14.90;8.77;;;;;;;1.97;60.62;102129.28;5034426;28;20058;-46
2022/03/09 02:01:17;;;;;;;15.35;9.05;;;;;;;1.97;60.04;102123.38;5034480;28;20025;-46
2022/03/09 02:03:42;;;;;;;19.10;8.93;;;;;;;1.95;59.97;102120.91;5016638;28;20028;-46
2022/03/09 02:06:07;;;;;;;15.35;8.85;;;;;;;1.92;59.64;102122.84;5034485;28;20108;-47
2022/03/09 02:11:17;;;;;;;16.35;9.35;;;;;;;1.74;61.70;102115.44;5034934;28;20372;-46
2022/03/09 02:13:43;;;;;;;15.25;8.13;;;;;;;1.73;60.99;102108.72;5034216;28;20028;-46
2022/03/09 02:16:08;;;;;;;17.90;8.70;;;;;;;1.84;60.23;102112.31;5034276;28;20384;-47
2022/03/09 02:18:33;;;;;;;13.55;7.80;;;;;;;1.85;59.41;102109.66;5034255;28;20021;-47
2022/03/09 02:21:02;;;;;;;15.57;8.82;;;;;;;1.89;59.52;102110.28;5034435;28;20056;-47
2022/03/09 02:23:28;;;;;;;13.88;7.95;;;;;;;2.09;56.67;102104.72;5034016;28;20388;-47
2022/03/09 02:25:53;;;;;;;18.85;8.77;;;;;;;2.58;54.05;102101.50;5033980;28;20025;-46
2022/03/09 02:28:18;;;;;;;13.57;7.72;;;;;;;2.61;53.65;102108.13;5034047;28;20029;-47
2022/03/09 02:30:43;;;;;;;13.27;7.78;;;;;;;2.65;53.56;102104.47;5033994;28;20025;-46
2022/03/09 02:33:09;;;;;;;16.65;8.43;;;;;;;2.51;53.99;102110.50;5034193;28;20028;-47
2022/03/09 02:35:34;;;;;;;15.13;8.15;;;;;;;2.54;53.76;102102.63;5033935;28;20045;-47
2022/03/09 02:38:00;;;;;;;15.80;7.82;;;;;;;2.32;54.49;102115.97;5033874;28;20071;-47
2022/03/09 02:40:25;;;;;;;19.58;8.23;;;;;;;2.44;54.03;102110.06;5032611;28;20084;-47
2022/03/09 02:42:50;;;;;;;15.98;8.45;;;;;;;2.26;55.41;102113.84;5033724;28;20105;-47
2022/03/09 02:45:17;;;;;;;21.58;8.77;;;;;;;2.01;57.56;102110.34;5034051;28;20520;-47
2022/03/09 02:47:43;;;;;;;19.17;8.20;;;;;;;1.84;57.48;102107.19;5033447;28;20028;-47
2022/03/09 02:50:09;;;;;;;14.73;8.02;;;;;;;1.86;58.94;102113.84;5033503;28;20041;-47
2022/03/09 02:52:39;;;;;;;15.35;8.25;;;;;;;1.83;56.48;102113.22;5034715;28;20024;-47
2022/03/09 02:55:06;;;;;;;16.95;7.97;;;;;;;1.88;57.01;102114.56;5033567;28;20112;-47
2022/03/09 02:57:32;;;;;;;19.77;8.45;;;;;;;1.83;57.15;102115.78;5033350;28;20099;-48
2022/03/09 02:59:57;;;;;;;14.52;8.40;;;;;;;1.74;57.47;102110.34;5032320;28;20034;-47
2022/03/09 03:02:22;;;;;;;17.17;8.95;;;;;;;1.54;58.17;102114.13;5033428;28;20025;-47
2022/03/09 03:04:48;;;;;;;13.07;7.82;;;;;;;1.53;58.89;102116.78;5033789;28;20434;-48
2022/03/09 03:07:13;;;;;;;14.70;8.48;;;;;;;1.39;60.10;102117.63;5033750;28;20065;-47
2022/03/09 03:09:38;;;;;;;13.05;7.93;;;;;;;1.30;60.90;102115.66;5033410;28;20052;-46
2022/03/09 03:12:04;;;;;;;17.27;8.38;;;;;;;1.25;59.19;102115.13;5033947;28;20132;-47
2022/03/09 03:14:29;;;;;;;16.92;8.35;;;;;;;1.37;59.51;102111.00;5033402;28;20036;-47
2022/03/09 03:16:54;;;;;;;19.67;9.10;;;;;;;1.40;59.27;102098.06;5032241;28;20028;-46
2022/03/09 03:19:20;;;;;;;16.70;8.93;;;;;;;1.27;60.01;102114.13;5033891;28;20073;-47
2022/03/09 03:21:45;;;;;;;14.43;7.95;;;;;;;1.09;60.80;102105.88;5033625;28;20025;-47
2022/03/09 03:24:10;;;;;;;13.15;8.55;;;;;;;1.31;60.62;102118.09;5033303;28;20083;-47
2022/03/09 03:26:35;;;;;;;15.60;8.27;;;;;;;1.41;59.46;102123.47;5033245;28;20076;-47
2022/03/09 03:29:02;;;;;;;17.70;8.13;;;;;;;1.39;59.04;102116.81;5031938;28;20076;-46
2022/03/09 03:31:29;;;;;;;17.88;8.52;;;;;;;1.54;59.26;102115.88;5033217;28;20025;-47
2022/03/09 03:33:55;;;;;;;15.18;8.90;;;;;;;1.40;59.83;102118.44;5033142;28;20022;-47
2022/03/09 03:36:20;;;;;;;17.75;8.63;;;;;;;1.27;60.48;102114.13;5033489;28;20044;-47
2022/03/09 03:38:45;;;;;;;15.95;8.27;;;;;;;1.20;60.30;102107.75;5033124;28;20025;-47
2022/03/09 03:41:11;;;;;;;14.43;8.45;;;;;;;1.23;60.73;102107.56;5031956;28;20031;-46
2022/03/09 03:43:36;;;;;;;18.67;8.65;;;;;;;1.26;58.60;102106.56;5031796;28;20431;-46
2022/03/09 03:46:01;;;;;;;15.52;7.93;;;;;;;1.32;59.61;102119.75;5033115;28;20471;-46
2022/03/09 03:48:26;;;;;;;15.50;8.00;;;;;;;1.28;60.64;102120.03;5015416;28;20144;-47
2022/03/09 03:50:52;;;;;;;13.48;7.85;;;;;;;1.23;59.74;102106.75;5033082;28;20068;-47
2022/03/09 03:53:17;;;;;;;17.35;8.13;;;;;;;1.39;59.36;102104.09;5033001;28;20025;-47
2022/03/09 03:55:44;;;;;;;13.52;8.00;;;;;;;1.41;57.56;102103.09;5015695;28;20026;-47
2022/03/09 03:58:10;;;;;;;14.43;7.93;;;;;;;1.42;58.09;102101.34;5032929;28;20508;-47
2022/03/09 04:00:35;;;;;;;20.65;9.35;;;;;;;1.50;56.97;102104.25;5034279;28;20100;-46
2022/03/09 04:03:01;;;;;;;16.58;8.52;;;;;;;1.44;56.87;102099.50;5035369;28;20040;-47
2022/03/09 04:05:27;;;;;;;17.40;8.20;;;;;;;1.53;57.06;102102.31;5035474;28;20029;-46
2022/03/09 04:07:52;;;;;;;12.90;7.75;;;;;;;1.61;56.18;102099.28;5036240;28;20029;-46
2022/03/09 04:10:18;;;;;;;16.88;8.18;;;;;;;1.63;56.02;102100.00;5036891;28;20486;-47
2022/03/09 04:12:43;;;;;;;17.60;8.38;;;;;;;1.61;56.43;102099.28;5036546;28;20010;-47
2022/03/09 04:15:09;;;;;;;15.38;8.95;;;;;;;1.50;56.78;102101.69;5037101;28;20056;-47
2022/03/09 04:17:39;;;;;;;15.45;8.65;;;;;;;1.61;56.32;102098.47;5036572;28;20021;-50
2022/03/09 04:20:05;;;;;;;16.20;8.30;;;;;;;1.66;55.97;102097.25;5035241;28;20454;-46
2022/03/09 04:22:30;;;;;;;16.35;8.10;;;;;;;1.54;56.08;102105.69;5036363;28;20021;-46
2022/03/09 04:24:55;;;;;;;20.23;8.00;;;;;;;1.73;55.96;102100.25;5018627;28;20060;-47
2022/03/09 04:27:21;;;;;;;13.27;8.30;;;;;;;1.76;55.26;102100.88;5036595;28;20025;-47
2022/03/09 04:29:46;;;;;;;21.65;8.05;;;;;;;1.76;55.02;102100.88;5036529;28;20031;-47
2022/03/09 04:32:11;;;;;;;15.38;8.15;;;;;;;1.82;55.87;102109.06;5018471;28;20013;-46
2022/03/09 04:34:37;;;;;;;17.05;8.63;;;;;;;1.68;56.81;102115.00;5036090;28;20461;-47
2022/03/09 04:37:02;;;;;;;13.43;8.32;;;;;;;1.54;57.54;102106.50;5036305;28;20021;-47
2022/03/09 04:39:28;;;;;;;16.60;8.73;;;;;;;1.46;58.10;102098.50;5036366;28;20419;-49
2022/03/09 04:41:53;;;;;;;15.30;8.40;;;;;;;1.27;59.44;102101.38;5036346;28;20026;-48
2022/03/09 04:44:18;;;;;;;17.90;8.98;;;;;;;1.41;58.26;102100.53;5035973;28;20029;-47
2022/03/09 04:46:43;;;;;;;16.48;8.27;;;;;;;1.34;58.13;102096.72;5036201;28;20029;-47
2022/03/09 04:49:09;;;;;;;14.32;8.50;;;;;;;1.39;56.84;102089.63;5035975;28;20175;-47
2022/03/09 04:51:36;;;;;;;16.85;8.57;;;;;;;1.39;57.65;102096.44;5035864;28;20021;-47
2022/03/09 04:54:02;;;;;;;14.55;8.20;;;;;;;1.19;58.63;102101.03;5036117;28;20060;-48
2022/03/09 04:56:27;;;;;;;16.70;8.77;;;;;;;1.09;59.22;102102.47;5036081;28;20018;-48
2022/03/09 04:58:52;;;;;;;15.40;9.15;;;;;;;0.93;61.06;102100.06;5035719;28;20069;-48
2022/03/09 05:01:18;;;;;;;15.73;8.82;;;;;;;0.92;60.23;102102.66;5035746;28;20029;-52
2022/03/09 05:03:43;;;;;;;15.10;8.38;;;;;;;0.92;60.95;102116.22;5035602;28;20387;-47
2022/03/09 05:06:08;;;;;;;15.73;8.93;;;;;;;0.84;61.57;102116.69;5035636;28;20385;-46
2022/03/09 05:08:34;;;;;;;15.73;8.35;;;;;;;0.81;62.24;102113.50;5035707;28;20025;-47
2022/03/09 05:10:59;;;;;;;16.52;9.32;;;;;;;0.78;61.67;102118.78;5035767;28;20057;-47
2022/03/09 05:13:24;;;;;;;17.70;9.05;;;;;;;0.66;61.56;102115.19;5017745;28;20477;-48
2022/03/09 05:15:50;;;;;;;14.85;8.80;;;;;;;0.68;61.68;102114.22;5035483;28;20036;-48
2022/03/09 05:18:15;;;;;;;18.30;8.48;;;;;;;0.63;61.00;102112.84;5035358;28;20025;-47
2022/03/09 05:20:40;;;;;;;19.35;9.32;;;;;;;0.74;59.47;102114.75;5034052;28;20037;-48
2022/03/09 05:23:06;;;;;;;20.88;9.07;;;;;;;0.89;58.76;102126.56;5035452;28;20075;-47
2022/03/09 05:25:31;;;;;;;18.00;8.57;;;;;;;0.90;59.10;102125.69;5035532;28;20017;-48
2022/03/09 05:27:58;;;;;;;17.10;9.00;;;;;;;0.90;59.71;102120.59;5035194;28;20022;-47
2022/03/09 05:30:23;;;;;;;15.68;9.10;;;;;;;0.80;59.47;102125.38;5035408;28;20037;-47
2022/03/09 05:32:49;;;;;;;14.88;8.70;;;;;;;0.68;60.49;102126.13;5035207;28;20018;-47
2022/03/09 05:35:14;;;;;;;18.75;9.35;;;;;;;0.59;61.46;102122.38;5035359;28;20053;-47
2022/03/09 05:37:42;;;;;;;18.33;9.00;;;;;;;0.62;61.68;102127.28;5033478;28;20018;-47
2022/03/09 05:40:09;;;;;;;16.48;8.88;;;;;;;0.70;60.92;102126.03;5034626;28;20147;-47
2022/03/09 05:42:35;;;;;;;15.15;8.95;;;;;;;0.69;60.37;102135.38;5034239;28;20025;-48
2022/03/09 05:45:00;;;;;;;16.38;8.75;;;;;;;0.63;60.91;102131.50;5035135;28;20033;-47
2022/03/09 05:47:26;;;;;;;16.38;8.73;;;;;;;0.66;61.27;102122.84;5034834;28;20033;-46
2022/03/09 05:49:51;;;;;;;15.50;9.13;;;;;;;0.61;60.79;102127.41;5033496;28;20083;-46
2022/03/09 05:52:16;;;;;;;16.08;8.80;;;;;;;0.64;60.32;102129.75;5035000;28;20063;-46
2022/03/09 05:54:41;;;;;;;16.48;8.48;;;;;;;0.62;60.51;102129.84;5034912;28;20022;-46
2022/03/09 05:57:07;;;;;;;17.05;9.35;;;;;;;0.69;60.16;102132.84;5034616;28;20451;-46
2022/03/09 05:59:32;;;;;;;15.75;8.68;;;;;;;0.64;60.27;102138.22;5034528;28;20532;-47
2022/03/09 06:01:58;;;;;;;16.20;9.13;;;;;;;0.74;59.51;102145.31;5034239;28;20026;-46
2022/03/09 06:04:23;;;;;;;16.45;8.70;;;;;;;0.80;59.82;102160.22;5034350;28;20044;-47
2022/03/09 06:06:48;;;;;;;18.17;9.10;;;;;;;0.72;60.70;102155.59;5034449;28;20087;-48
2022/03/09 06:09:14;;;;;;;15.85;8.73;;;;;;;0.54;60.49;102154.91;5034658;28;20017;-48
2022/03/09 06:11:41;;;;;;;18.63;9.38;;;;;;;0.60;60.71;102149.44;5034566;28;20022;-47
2022/03/09 06:14:06;;;;;;;20.90;9.00;;;;;;;0.53;60.99;102152.47;5034350;28;20368;-48
2022/03/09 06:16:32;;;;;;;14.60;8.50;;;;;;;0.61;60.97;102150.28;5034246;28;20026;-47
2022/03/09 06:18:58;;;;;;;20.80;9.77;;;;;;;0.57;60.68;102159.00;5034520;28;20519;-47
2022/03/09 06:21:23;;;;;;;22.15;9.90;;;;;;;0.56;61.34;102154.81;5034215;28;20032;-47
2022/03/09 06:23:48;;;;;;;19.70;9.32;;;;;;;0.45;62.61;102158.78;5033755;28;20064;-47
2022/03/09 06:26:13;;;;;;;20.95;9.32;;;;;;;0.42;62.56;102170.88;5034595;28;20052;-47
2022/03/09 06:28:39;;;;;;;21.27;9.98;;;;;;;0.42;63.17;102171.69;5016320;28;20029;-47
2022/03/09 06:31:04;;;;;;;16.77;9.48;;;;;;;0.36;62.75;102177.13;5034163;28;20029;-48
2022/03/09 06:33:30;;;;;;;20.55;9.40;;;;;;;0.45;62.13;102180.88;5033963;28;20024;-47
2022/03/09 06:35:55;;;;;;;19.88;9.13;;;;;;;0.45;63.23;102179.13;5034342;28;20024;-47
2022/03/09 06:38:20;;;;;;;18.13;9.40;;;;;;;0.51;63.43;102195.78;5033731;28;20052;-46
2022/03/09 06:40:46;;;;;;;15.82;9.27;;;;;;;0.67;61.12;102183.00;5033794;28;20029;-47
2022/03/09 06:43:11;;;;;;;22.08;10.23;;;;;;;0.70;62.12;102187.94;5033658;28;20014;-47
2022/03/09 06:45:37;;;;;;;17.48;9.18;;;;;;;0.82;60.56;102199.94;5032539;28;20056;-47
2022/03/09 06:48:03;;;;;;;18.48;9.52;;;;;;;0.87;60.85;102197.13;5033626;28;20026;-48
2022/03/09 06:50:29;;;;;;;24.23;9.13;;;;;;;1.03;61.18;102190.22;5034233;28;20116;-48
2022/03/09 06:52:54;;;;;;;16.50;9.23;;;;;;;1.18;59.20;102205.50;5033653;28;20079;-47
2022/03/09 06:55:20;;;;;;;15.80;8.52;;;;;;;1.28;58.98;102199.78;5033697;28;20112;-46
2022/03/09 06:57:46;;;;;;;20.33;9.60;;;;;;;1.43;58.78;102207.41;5033480;28;20053;-48
2022/03/09 07:00:16;;;;;;;21.15;9.50;;;;;;;1.57;58.23;102195.47;5033476;28;20033;-48
2022/03/09 07:02:42;;;;;;;17.17;9.13;;;;;;;1.66;56.78;102201.75;5032740;28;20040;-46
2022/03/09 07:05:08;;;;;;;18.52;9.20;;;;;;;1.75;57.95;102205.47;5032827;28;20372;-54
2022/03/09 07:07:34;;;;;;;18.02;8.85;;;;;;;1.88;56.26;102197.88;5032837;28;20025;-47
2022/03/09 07:10:00;;;;;;;18.33;8.65;;;;;;;2.07;55.67;102190.69;5031654;28;20025;-46
2022/03/09 07:12:25;;;;;;;17.48;8.85;;;;;;;1.96;55.67;102190.59;5033182;28;20477;-46
2022/03/09 07:14:51;;;;;;;18.13;9.27;;;;;;;1.83;55.66;102198.16;5033075;28;20115;-46
2022/03/09 07:17:16;;;;;;;18.88;8.35;;;;;;;1.83;55.86;102195.59;5033186;28;20026;-45
2022/03/09 07:19:42;;;;;;;16.67;8.63;;;;;;;1.81;56.16;102189.78;5033885;28;20029;-46
2022/03/09 07:22:07;;;;;;;17.60;9.32;;;;;;;2.11;55.26;102183.69;5033312;28;20024;-47
2022/03/09 07:24:33;;;;;;;19.95;8.93;;;;;;;2.12;55.18;102182.78;5033537;28;20021;-46
2022/03/09 07:26:58;;;;;;;14.88;8.55;;;;;;;2.22;54.50;102186.38;5032375;28;20096;-46
2022/03/09 07:29:23;;;;;;;19.63;8.45;;;;;;;2.34;54.44;102187.31;5033159;28;20081;-46
2022/03/09 07:31:50;;;;;;;15.90;8.95;;;;;;;2.69;53.95;102187.59;5033359;28;20029;-47
2022/03/09 07:34:16;;;;;;;18.00;8.57;;;;;;;2.82;53.75;102187.56;5034389;28;20025;-47
2022/03/09 07:36:41;;;;;;;13.98;8.25;;;;;;;2.96;52.22;102189.22;5037125;28;20021;-46
2022/03/09 07:39:06;;;;;;;15.80;8.88;;;;;;;3.13;52.45;102194.00;5035939;28;20032;-45
2022/03/09 07:41:32;;;;;;;14.27;8.50;;;;;;;3.35;52.09;102188.28;5035746;28;20032;-47
2022/03/09 07:43:57;;;;;;;18.75;8.65;;;;;;;4.24;49.78;102190.50;5036462;28;20029;-46
2022/03/09 07:46:22;;;;;;;15.65;9.00;;;;;;;8.26;40.00;102181.19;5036942;28;20049;-48
2022/03/09 07:48:48;;;;;;;27.45;8.63;;;;;;;9.81;35.93;102182.34;5036272;28;20017;-47
2022/03/09 07:51:13;;;;;;;16.45;9.23;;;;;;;10.63;34.40;102195.88;5018872;28;20033;-48
2022/03/09 07:53:42;;;;;;;22.13;8.77;;;;;;;10.48;33.81;102184.50;5036710;28;20021;-46
2022/03/09 07:56:10;;;;;;;18.38;8.70;;;;;;;11.38;33.24;102190.06;5037012;28;20025;-47
2022/03/09 07:58:35;;;;;;;24.70;8.15;;;;;;;11.90;32.09;102184.69;5036493;28;20048;-48
2022/03/09 08:01:00;;;;;;;19.33;9.30;;;;;;;11.65;30.99;102189.81;5019469;28;20022;-46
2022/03/09 08:03:25;;;;;;;16.83;9.35;;;;;;;11.66;31.44;102183.66;5036417;28;20104;-46
2022/03/09 08:05:51;;;;;;;21.30;9.50;;;;;;;11.62;31.78;102178.97;5035477;28;20044;-45
2022/03/09 08:08:16;;;;;;;13.93;8.27;;;;;;;12.02;30.79;102183.38;5035149;28;20033;-44
2022/03/09 08:10:41;;;;;;;14.95;8.80;;;;;;;12.40;30.18;102187.09;5035306;28;20021;-45
2022/03/09 08:13:06;;;;;;;14.88;9.10;;;;;;;13.26;28.14;102187.31;5035301;28;20033;-45
2022/03/09 08:15:34;;;;;;;12.80;9.02;;;;;;;14.52;27.33;102196.47;5016085;28;20075;-45
2022/03/09 08:17:59;;;;;;;16.38;8.70;;;;;;;15.01;26.70;102190.72;5033757;28;20365;-43
2022/03/09 08:20:25;;;;;;;15.98;9.02;;;;;;;14.98;26.38;102188.47;5035063;28;20014;-45
2022/03/09 08:22:50;;;;;;;15.23;8.80;;;;;;;15.16;25.31;102188.88;5017210;28;20033;-45
2022/03/09 08:25:15;;;;;;;12.82;8.15;;;;;;;14.86;25.55;102193.34;5033802;28;20504;-45
2022/03/09 08:27:41;;;;;;;16.75;8.50;;;;;;;14.37;26.79;102191.22;5033647;28;20037;-45
2022/03/09 08:30:07;;;;;;;15.15;8.98;;;;;;;15.89;25.80;102194.06;5035524;28;20033;-47
2022/03/09 08:32:32;;;;;;;17.90;8.38;;;;;;;15.53;24.97;102184.47;5036437;28;20037;-46
2022/03/09 08:34:57;;;;;;;12.35;8.60;;;;;;;16.12;24.12;102186.03;5036226;28;20088;-46
2022/03/09 08:37:26;;;;;;;16.35;9.02;;;;;;;15.76;25.36;102186.94;5036072;28;20022;-46
2022/03/09 08:39:51;;;;;;;12.25;8.70;;;;;;;15.64;24.52;102196.22;5036024;28;20029;-45
2022/03/09 08:42:16;;;;;;;14.57;9.05;;;;;;;16.23;24.32;102190.75;5035202;28;20091;-45
2022/03/09 08:44:42;;;;;;;12.50;8.55;;;;;;;16.53;23.58;102195.75;5018390;28;20360;-46
2022/03/09 08:47:08;;;;;;;18.23;9.05;;;;;;;17.21;23.00;102201.09;5035303;28;20061;-44
2022/03/09 08:49:35;;;;;;;11.32;8.32;;;;;;;16.07;24.34;102194.41;5036042;28;20060;-46
2022/03/09 08:52:01;;;;;;;18.48;8.80;;;;;;;17.50;22.46;102207.81;5036355;28;20415;-46
2022/03/09 08:54:27;;;;;;;14.73;8.43;;;;;;;17.40;23.14;102209.97;5036543;28;20045;-46
2022/03/09 08:56:52;;;;;;;13.15;9.05;;;;;;;16.29;23.66;102189.97;5035867;28;20124;-46
2022/03/09 08:59:17;;;;;;;12.23;8.80;;;;;;;17.55;22.67;102208.81;5035976;28;20029;-47
2022/03/09 09:01:42;;;;;;;15.32;9.30;;;;;;;17.69;22.19;102204.41;5035610;28;20059;-46
2022/03/09 09:04:08;;;;;;;16.98;9.18;;;;;;;17.26;23.10;102203.91;5035470;28;20026;-45
2022/03/09 09:06:33;;;;;;;15.30;9.10;;;;;;;18.79;21.44;102196.91;5035582;28;20031;-47
2022/03/09 09:08:59;;;;;;;14.00;9.10;;;;;;;17.64;22.36;102204.22;5035451;28;20021;-46
2022/03/09 09:11:24;;;;;;;12.82;8.93;;;;;;;17.83;22.15;102199.22;5035441;28;20047;-44
2022/03/09 09:13:49;;;;;;;16.10;9.30;;;;;;;18.97;21.15;102200.66;5036015;28;20426;-45
2022/03/09 09:16:14;;;;;;;13.63;9.23;;;;;;;18.77;21.30;102204.16;5035478;28;20051;-44
2022/03/09 09:18:40;;;;;;;17.65;9.43;;;;;;;19.85;20.03;102198.13;5035487;28;20128;-46
2022/03/09 09:21:05;;;;;;;13.80;9.32;;;;;;;17.56;21.94;102209.63;5017606;28;20053;-46
2022/03/09 09:23:31;;;;;;;13.70;9.65;;;;;;;17.45;22.06;102204.97;5035464;28;20037;-45
2022/03/09 09:25:56;;;;;;;14.10;9.98;;;;;;;17.16;23.19;102208.72;5036197;28;20024;-44
2022/03/09 09:28:21;;;;;;;13.13;9.80;;;;;;;18.62;21.20;102216.66;5034321;28;20030;-46
2022/03/09 09:30:47;;;;;;;16.08;10.75;;;;;;;18.57;21.35;102219.09;5034672;28;20044;-47
2022/03/09 09:33:13;;;;;;;16.50;10.02;;;;;;;20.29;19.43;102222.56;5035084;28;20048;-47
2022/03/09 09:35:38;;;;;;;15.15;10.48;;;;;;;20.39;19.52;102222.06;5033926;28;20025;-46
2022/03/09 09:38:06;;;;;;;16.80;9.88;;;;;;;20.01;19.35;102230.88;5033780;28;20049;-45
2022/03/09 09:40:41;;;;;;;20.20;10.05;;;;;;;18.97;21.04;102226.84;5034924;28;20103;-45
2022/03/09 09:43:10;;;;;;;15.90;10.60;;;;;;;20.87;19.14;102232.69;5034441;28;20030;-46
2022/03/09 09:45:35;;;;;;;15.93;10.88;;;;;;;20.24;19.67;102223.22;5034838;28;20059;-45
2022/03/09 09:48:02;;;;;;;16.35;9.98;;;;;;;19.84;20.03;102202.56;5034799;28;20080;-46
2022/03/09 09:50:28;;;;;;;19.67;11.15;;;;;;;20.34;20.02;102196.47;5035082;28;20337;-46
2022/03/09 09:52:54;;;;;;;26.65;11.80;;;;;;;21.05;19.48;102200.31;5034915;28;20017;-47
2022/03/09 09:55:19;;;;;;;21.38;11.43;;;;;;;19.28;20.53;102199.91;5034225;28;20033;-45
2022/03/09 09:57:48;;;;;;;17.33;11.25;;;;;;;20.04;19.71;102186.66;5032970;28;20052;-47
2022/03/09 10:00:14;;;;;;;17.00;11.18;;;;;;;19.16;20.48;102197.13;5031951;28;20029;-44
2022/03/09 10:02:42;;;;;;;21.88;11.75;;;;;;;20.49;19.97;102185.63;5033824;28;20033;-47
2022/03/09 10:05:14;;;;;;;18.85;11.95;;;;;;;19.17;20.18;102196.13;5016801;28;20033;-46
2022/03/09 10:08:05;;;;;;;18.92;12.00;;;;;;;19.64;20.71;102180.91;5034652;28;20022;-47
2022/03/09 10:10:42;;;;;;;19.70;12.25;;;;;;;18.80;21.45;102187.22;5025130;28;20042;-46
2022/03/09 10:13:11;;;;;;;21.63;12.48;;;;;;;19.77;20.57;102180.03;5034845;28;20464;-47
2022/03/09 10:15:36;;;;;;;19.70;12.05;;;;;;;19.07;21.47;102170.38;5034452;28;20021;-47
2022/03/09 10:18:20;;;;;;;22.10;12.38;;;;;;;18.83;21.62;102186.81;5016333;28;20396;-47
2022/03/09 10:21:08;;;;;;;20.90;12.25;;;;;;;17.78;22.65;102184.97;5173207;27;20126;-46
2022/03/09 10:23:34;;;;;;;21.90;12.38;;;;;;;16.06;24.91;102182.38;5134090;27;20500;-44
2022/03/09 10:26:02;;;;;;;22.00;12.15;;;;;;;15.49;26.35;102181.44;5133429;27;20023;-46
2022/03/09 10:28:27;;;;;;;19.38;11.73;;;;;;;14.79;26.21;102188.06;5152380;27;20079;-46
2022/03/09 10:30:53;;;;;;;19.80;12.07;;;;;;;14.53;27.13;102183.31;5151858;27;20034;-46
2022/03/09 10:33:19;;;;;;;21.80;12.27;;;;;;;14.32;27.52;102186.56;5152094;27;20033;-46
2022/03/09 10:35:48;;;;;;;21.85;12.48;;;;;;;15.38;26.49;102181.13;5152064;27;20022;-46
2022/03/09 10:38:16;;;;;;;24.30;12.68;;;;;;;14.66;26.60;102188.69;5152098;27;20114;-46
2022/03/09 10:40:43;;;;;;;22.80;12.93;;;;;;;14.62;26.99;102184.81;5133404;27;20022;-46
2022/03/09 10:43:11;;;;;;;21.98;12.80;;;;;;;14.00;28.04;102179.84;5151975;27;20057;-46
2022/03/09 10:45:56;;;;;;;22.95;11.98;;;;;;;14.43;29.70;102183.53;5151881;27;20055;-46
2022/03/09 10:48:21;;;;;;;22.63;13.23;;;;;;;14.60;27.76;102176.38;5151966;27;20077;-48
2022/03/09 10:50:51;;;;;;;24.13;13.60;;;;;;;14.48;28.92;102182.19;5133200;27;20480;-47
2022/03/09 10:53:16;;;;;;;27.45;12.85;;;;;;;14.49;27.73;102182.00;5133758;27;20063;-47
2022/03/09 10:55:42;;;;;;;26.77;13.63;;;;;;;13.96;28.35;102176.81;5151864;27;20027;-47
2022/03/09 10:58:10;;;;;;;22.20;13.30;;;;;;;14.35;27.61;102172.38;5152209;27;20092;-47
2022/03/09 11:00:48;;;;;;;25.27;13.95;;;;;;;14.43;28.31;102177.50;5132185;27;20027;-45
2022/03/09 11:03:21;;;;;;;24.58;13.80;;;;;;;14.90;27.89;102173.75;5151297;27;20030;-47
2022/03/09 11:06:07;;;;;;;25.42;13.55;;;;;;;14.09;28.51;102172.78;5151644;27;20019;-37
2022/03/09 11:08:35;;;;;;;31.15;14.85;;;;;;;13.76;28.60;102167.88;5147486;27;20038;-43
2022/03/09 11:11:02;;;;;;;27.85;14.52;;;;;;;13.63;28.87;102175.44;5130705;28;20019;-42
2022/03/09 11:13:29;;;;;;;26.70;14.23;;;;;;;13.47;29.65;102171.97;5130220;28;20031;-46
2022/03/09 11:15:55;;;;;;;27.17;14.90;;;;;;;13.80;28.53;102160.53;5130892;28;20115;-45
2022/03/09 11:18:24;;;;;;;30.98;15.20;;;;;;;14.66;27.79;102164.47;5112103;28;20449;-46
2022/03/09 11:20:58;;;;;;;34.78;15.27;;;;;;;13.92;28.68;102153.94;5130293;28;20096;-45